sensor_id;sensor_type;location;lat;lon;timestamp;temperature;humidity
62581;DHT22;48640;48.770;9.148;2023-02-11T00:01:23;1.40;90.90
62581;DHT22;48640;48.770;9.148;2023-02-11T00:03:50;1.40;90.90
62581;DHT22;48640;48.770;9.148;2023-02-11T00:06:17;1.50;91.00
62581;DHT22;48640;48.770;9.148;2023-02-11T00:08:45;1.50;91.00
62581;DHT22;48640;48.770;9.148;2023-02-11T00:11:12;1.40;90.90
62581;DHT22;48640;48.770;9.148;2023-02-11T00:13:40;1.30;90.90
62581;DHT22;48640;48.770;9.148;2023-02-11T00:16:10;1.40;91.10
62581;DHT22;48640;48.770;9.148;2023-02-11T00:18:37;1.30;91.10
62581;DHT22;48640;48.770;9.148;2023-02-11T00:21:08;1.30;91.10
62581;DHT22;48640;48.770;9.148;2023-02-11T00:23:35;1.30;91.50
62581;DHT22;48640;48.770;9.148;2023-02-11T00:26:03;1.30;91.40
62581;DHT22;48640;48.770;9.148;2023-02-11T00:28:30;1.30;91.30
62581;DHT22;48640;48.770;9.148;2023-02-11T00:30:57;1.30;91.30
62581;DHT22;48640;48.770;9.148;2023-02-11T00:33:27;1.30;91.30
62581;DHT22;48640;48.770;9.148;2023-02-11T00:35:54;1.40;91.20
62581;DHT22;48640;48.770;9.148;2023-02-11T00:38:20;1.30;90.90
62581;DHT22;48640;48.770;9.148;2023-02-11T00:40:47;1.30;90.70
62581;DHT22;48640;48.770;9.148;2023-02-11T00:43:14;1.20;90.70
62581;DHT22;48640;48.770;9.148;2023-02-11T00:45:41;1.20;90.80
62581;DHT22;48640;48.770;9.148;2023-02-11T00:48:08;1.20;90.90
62581;DHT22;48640;48.770;9.148;2023-02-11T00:50:36;1.20;90.80
62581;DHT22;48640;48.770;9.148;2023-02-11T00:53:04;1.20;91.00
62581;DHT22;48640;48.770;9.148;2023-02-11T00:55:30;1.20;90.80
62581;DHT22;48640;48.770;9.148;2023-02-11T00:57:57;1.20;91.00
62581;DHT22;48640;48.770;9.148;2023-02-11T01:00:24;1.30;91.00
62581;DHT22;48640;48.770;9.148;2023-02-11T01:02:51;1.20;90.80
62581;DHT22;48640;48.770;9.148;2023-02-11T01:05:21;1.20;90.80
62581;DHT22;48640;48.770;9.148;2023-02-11T01:07:49;1.10;90.70
62581;DHT22;48640;48.770;9.148;2023-02-11T01:10:16;1.00;91.00
62581;DHT22;48640;48.770;9.148;2023-02-11T01:12:43;1.10;91.30
62581;DHT22;48640;48.770;9.148;2023-02-11T01:15:13;1.10;91.40
62581;DHT22;48640;48.770;9.148;2023-02-11T01:17:40;1.10;91.50
62581;DHT22;48640;48.770;9.148;2023-02-11T01:20:12;1.10;91.70
62581;DHT22;48640;48.770;9.148;2023-02-11T01:22:39;1.10;91.70
62581;DHT22;48640;48.770;9.148;2023-02-11T01:25:08;1.10;91.40
62581;DHT22;48640;48.770;9.148;2023-02-11T01:27:35;1.10;91.30
62581;DHT22;48640;48.770;9.148;2023-02-11T01:30:04;1.00;91.40
62581;DHT22;48640;48.770;9.148;2023-02-11T01:32:31;1.00;91.70
62581;DHT22;48640;48.770;9.148;2023-02-11T01:34:58;1.10;91.50
62581;DHT22;48640;48.770;9.148;2023-02-11T01:37:25;1.10;91.40
62581;DHT22;48640;48.770;9.148;2023-02-11T01:39:52;1.10;91.50
62581;DHT22;48640;48.770;9.148;2023-02-11T01:42:22;1.10;91.70
62581;DHT22;48640;48.770;9.148;2023-02-11T01:44:50;1.00;91.50
62581;DHT22;48640;48.770;9.148;2023-02-11T01:47:18;1.00;91.70
62581;DHT22;48640;48.770;9.148;2023-02-11T01:49:48;1.10;92.10
62581;DHT22;48640;48.770;9.148;2023-02-11T01:52:18;1.10;91.40
62581;DHT22;48640;48.770;9.148;2023-02-11T01:54:50;1.10;91.30
62581;DHT22;48640;48.770;9.148;2023-02-11T01:57:37;1.00;91.40
62581;DHT22;48640;48.770;9.148;2023-02-11T02:00:10;1.00;91.50
62581;DHT22;48640;48.770;9.148;2023-02-11T02:02:43;1.00;91.90
62581;DHT22;48640;48.770;9.148;2023-02-11T02:05:20;1.00;91.90
62581;DHT22;48640;48.770;9.148;2023-02-11T02:07:53;1.00;91.80
62581;DHT22;48640;48.770;9.148;2023-02-11T02:10:24;1.00;92.00
62581;DHT22;48640;48.770;9.148;2023-02-11T02:12:53;1.00;92.00
62581;DHT22;48640;48.770;9.148;2023-02-11T02:15:31;1.00;92.00
62581;DHT22;48640;48.770;9.148;2023-02-11T02:18:02;1.00;92.00
62581;DHT22;48640;48.770;9.148;2023-02-11T02:20:51;1.00;92.10
62581;DHT22;48640;48.770;9.148;2023-02-11T02:23:29;1.00;92.20
62581;DHT22;48640;48.770;9.148;2023-02-11T02:26:25;1.00;92.10
62581;DHT22;48640;48.770;9.148;2023-02-11T02:29:22;1.10;92.40
62581;DHT22;48640;48.770;9.148;2023-02-11T02:32:11;1.20;92.50
62581;DHT22;48640;48.770;9.148;2023-02-11T02:34:46;1.30;92.10
62581;DHT22;48640;48.770;9.148;2023-02-11T02:37:19;1.20;91.90
62581;DHT22;48640;48.770;9.148;2023-02-11T02:39:47;1.10;92.10
62581;DHT22;48640;48.770;9.148;2023-02-11T02:42:16;1.10;92.20
62581;DHT22;48640;48.770;9.148;2023-02-11T02:44:47;1.00;92.20
62581;DHT22;48640;48.770;9.148;2023-02-11T02:47:16;1.10;92.20
62581;DHT22;48640;48.770;9.148;2023-02-11T02:49:42;1.10;92.20
62581;DHT22;48640;48.770;9.148;2023-02-11T02:52:26;1.00;91.90
62581;DHT22;48640;48.770;9.148;2023-02-11T02:58:17;1.00;91.80
62581;DHT22;48640;48.770;9.148;2023-02-11T03:00:52;1.10;91.50
62581;DHT22;48640;48.770;9.148;2023-02-11T03:03:28;1.10;91.40
62581;DHT22;48640;48.770;9.148;2023-02-11T03:06:04;1.10;91.30
62581;DHT22;48640;48.770;9.148;2023-02-11T03:08:35;1.10;91.10
62581;DHT22;48640;48.770;9.148;2023-02-11T03:11:04;1.10;91.20
62581;DHT22;48640;48.770;9.148;2023-02-11T03:13:33;1.10;91.60
62581;DHT22;48640;48.770;9.148;2023-02-11T03:16:04;1.10;91.70
62581;DHT22;48640;48.770;9.148;2023-02-11T03:18:36;1.20;91.70
62581;DHT22;48640;48.770;9.148;2023-02-11T03:21:05;1.20;90.80
62581;DHT22;48640;48.770;9.148;2023-02-11T03:23:36;1.10;90.70
62581;DHT22;48640;48.770;9.148;2023-02-11T03:26:11;1.20;91.10
62581;DHT22;48640;48.770;9.148;2023-02-11T03:28:43;1.20;90.90
62581;DHT22;48640;48.770;9.148;2023-02-11T03:31:15;1.00;90.60
62581;DHT22;48640;48.770;9.148;2023-02-11T03:33:52;1.00;91.10
62581;DHT22;48640;48.770;9.148;2023-02-11T03:36:25;1.00;91.60
62581;DHT22;48640;48.770;9.148;2023-02-11T03:38:54;1.10;91.20
62581;DHT22;48640;48.770;9.148;2023-02-11T03:41:23;1.10;91.00
62581;DHT22;48640;48.770;9.148;2023-02-11T03:43:52;1.10;91.40
62581;DHT22;48640;48.770;9.148;2023-02-11T03:46:25;1.10;91.50
62581;DHT22;48640;48.770;9.148;2023-02-11T03:48:57;1.00;91.80
62581;DHT22;48640;48.770;9.148;2023-02-11T03:51:27;1.00;92.00
62581;DHT22;48640;48.770;9.148;2023-02-11T03:53:57;1.00;92.00
62581;DHT22;48640;48.770;9.148;2023-02-11T03:56:29;1.00;92.20
62581;DHT22;48640;48.770;9.148;2023-02-11T03:58:57;1.00;92.20
62581;DHT22;48640;48.770;9.148;2023-02-11T04:01:24;1.10;91.90
62581;DHT22;48640;48.770;9.148;2023-02-11T04:03:51;1.10;91.90
62581;DHT22;48640;48.770;9.148;2023-02-11T04:06:19;1.20;92.10
62581;DHT22;48640;48.770;9.148;2023-02-11T04:08:46;1.30;92.10
62581;DHT22;48640;48.770;9.148;2023-02-11T04:11:12;1.30;92.10
62581;DHT22;48640;48.770;9.148;2023-02-11T04:13:39;1.40;92.20
62581;DHT22;48640;48.770;9.148;2023-02-11T04:16:06;1.40;92.20
62581;DHT22;48640;48.770;9.148;2023-02-11T04:18:33;1.40;92.30
62581;DHT22;48640;48.770;9.148;2023-02-11T04:21:00;1.50;92.30
62581;DHT22;48640;48.770;9.148;2023-02-11T04:23:28;1.60;92.20
62581;DHT22;48640;48.770;9.148;2023-02-11T04:25:54;1.70;92.20
62581;DHT22;48640;48.770;9.148;2023-02-11T04:28:21;1.80;91.80
62581;DHT22;48640;48.770;9.148;2023-02-11T04:30:49;1.80;91.50
62581;DHT22;48640;48.770;9.148;2023-02-11T04:33:16;1.80;91.60
62581;DHT22;48640;48.770;9.148;2023-02-11T04:35:42;1.90;91.70
62581;DHT22;48640;48.770;9.148;2023-02-11T04:38:09;1.90;91.80
62581;DHT22;48640;48.770;9.148;2023-02-11T04:40:38;1.90;91.90
62581;DHT22;48640;48.770;9.148;2023-02-11T04:43:05;1.90;91.70
62581;DHT22;48640;48.770;9.148;2023-02-11T04:45:32;2.00;92.00
62581;DHT22;48640;48.770;9.148;2023-02-11T04:48:01;2.10;92.00
62581;DHT22;48640;48.770;9.148;2023-02-11T04:50:28;2.10;91.80
62581;DHT22;48640;48.770;9.148;2023-02-11T04:52:55;2.20;91.50
62581;DHT22;48640;48.770;9.148;2023-02-11T04:55:21;2.20;91.50
62581;DHT22;48640;48.770;9.148;2023-02-11T04:57:50;2.10;91.50
62581;DHT22;48640;48.770;9.148;2023-02-11T05:00:16;1.90;91.60
62581;DHT22;48640;48.770;9.148;2023-02-11T05:02:43;1.70;92.10
62581;DHT22;48640;48.770;9.148;2023-02-11T05:05:10;1.50;92.40
62581;DHT22;48640;48.770;9.148;2023-02-11T05:07:37;1.70;92.80
62581;DHT22;48640;48.770;9.148;2023-02-11T05:10:04;1.80;92.60
62581;DHT22;48640;48.770;9.148;2023-02-11T05:12:31;1.80;92.40
62581;DHT22;48640;48.770;9.148;2023-02-11T05:14:59;1.90;92.20
62581;DHT22;48640;48.770;9.148;2023-02-11T05:17:25;2.00;92.20
62581;DHT22;48640;48.770;9.148;2023-02-11T05:19:52;2.10;91.80
62581;DHT22;48640;48.770;9.148;2023-02-11T05:22:19;2.20;91.50
62581;DHT22;48640;48.770;9.148;2023-02-11T05:24:46;2.10;91.10
62581;DHT22;48640;48.770;9.148;2023-02-11T05:27:13;2.10;91.50
62581;DHT22;48640;48.770;9.148;2023-02-11T05:29:40;2.10;91.10
62581;DHT22;48640;48.770;9.148;2023-02-11T05:32:08;2.20;90.80
62581;DHT22;48640;48.770;9.148;2023-02-11T05:34:35;2.30;90.90
62581;DHT22;48640;48.770;9.148;2023-02-11T05:37:02;2.30;90.50
62581;DHT22;48640;48.770;9.148;2023-02-11T05:39:28;2.30;90.10
62581;DHT22;48640;48.770;9.148;2023-02-11T05:41:55;2.40;89.60
62581;DHT22;48640;48.770;9.148;2023-02-11T05:44:22;2.30;88.60
62581;DHT22;48640;48.770;9.148;2023-02-11T05:46:49;2.30;88.60
62581;DHT22;48640;48.770;9.148;2023-02-11T05:49:17;2.30;88.60
62581;DHT22;48640;48.770;9.148;2023-02-11T05:51:44;2.20;88.80
62581;DHT22;48640;48.770;9.148;2023-02-11T05:54:10;2.30;89.00
62581;DHT22;48640;48.770;9.148;2023-02-11T05:56:37;2.20;89.10
62581;DHT22;48640;48.770;9.148;2023-02-11T05:59:04;1.90;89.60
62581;DHT22;48640;48.770;9.148;2023-02-11T06:01:31;1.90;89.60
62581;DHT22;48640;48.770;9.148;2023-02-11T06:03:58;2.00;89.60
62581;DHT22;48640;48.770;9.148;2023-02-11T06:06:26;2.20;89.50
62581;DHT22;48640;48.770;9.148;2023-02-11T06:08:53;2.30;89.40
62581;DHT22;48640;48.770;9.148;2023-02-11T06:11:20;2.40;88.90
62581;DHT22;48640;48.770;9.148;2023-02-11T06:13:47;2.20;89.20
62581;DHT22;48640;48.770;9.148;2023-02-11T06:16:14;2.30;89.60
62581;DHT22;48640;48.770;9.148;2023-02-11T06:18:41;2.10;89.10
62581;DHT22;48640;48.770;9.148;2023-02-11T06:21:08;2.30;89.20
62581;DHT22;48640;48.770;9.148;2023-02-11T06:23:37;2.40;88.90
62581;DHT22;48640;48.770;9.148;2023-02-11T06:26:06;2.50;88.70
62581;DHT22;48640;48.770;9.148;2023-02-11T06:28:33;2.50;88.20
62581;DHT22;48640;48.770;9.148;2023-02-11T06:31:04;2.50;88.40
62581;DHT22;48640;48.770;9.148;2023-02-11T06:33:31;2.60;88.60
62581;DHT22;48640;48.770;9.148;2023-02-11T06:35:58;2.60;88.20
62581;DHT22;48640;48.770;9.148;2023-02-11T06:38:25;2.60;88.30
62581;DHT22;48640;48.770;9.148;2023-02-11T06:40:53;2.60;88.00
62581;DHT22;48640;48.770;9.148;2023-02-11T06:43:20;2.60;87.80
62581;DHT22;48640;48.770;9.148;2023-02-11T06:45:51;2.50;87.60
62581;DHT22;48640;48.770;9.148;2023-02-11T06:48:18;2.40;88.50
62581;DHT22;48640;48.770;9.148;2023-02-11T06:50:45;2.40;89.20
62581;DHT22;48640;48.770;9.148;2023-02-11T06:53:12;2.50;89.70
62581;DHT22;48640;48.770;9.148;2023-02-11T06:55:39;2.70;88.80
62581;DHT22;48640;48.770;9.148;2023-02-11T06:58:07;2.80;88.30
62581;DHT22;48640;48.770;9.148;2023-02-11T07:00:34;2.80;88.10
62581;DHT22;48640;48.770;9.148;2023-02-11T07:03:00;2.40;88.20
62581;DHT22;48640;48.770;9.148;2023-02-11T07:05:27;2.30;89.00
62581;DHT22;48640;48.770;9.148;2023-02-11T07:07:54;2.50;89.60
62581;DHT22;48640;48.770;9.148;2023-02-11T07:10:21;2.60;89.60
62581;DHT22;48640;48.770;9.148;2023-02-11T07:12:47;2.60;89.30
62581;DHT22;48640;48.770;9.148;2023-02-11T07:15:16;2.70;89.60
62581;DHT22;48640;48.770;9.148;2023-02-11T07:17:42;2.80;89.50
62581;DHT22;48640;48.770;9.148;2023-02-11T07:20:10;2.90;89.40
62581;DHT22;48640;48.770;9.148;2023-02-11T07:22:39;2.90;89.40
62581;DHT22;48640;48.770;9.148;2023-02-11T07:25:06;3.00;88.90
62581;DHT22;48640;48.770;9.148;2023-02-11T07:27:33;2.80;88.20
62581;DHT22;48640;48.770;9.148;2023-02-11T07:29:59;2.60;88.80
62581;DHT22;48640;48.770;9.148;2023-02-11T07:32:27;2.70;89.60
62581;DHT22;48640;48.770;9.148;2023-02-11T07:34:54;2.80;89.60
62581;DHT22;48640;48.770;9.148;2023-02-11T07:37:21;3.00;88.90
62581;DHT22;48640;48.770;9.148;2023-02-11T07:39:48;3.10;88.80
62581;DHT22;48640;48.770;9.148;2023-02-11T07:42:14;3.20;88.30
62581;DHT22;48640;48.770;9.148;2023-02-11T07:44:41;3.30;88.20
62581;DHT22;48640;48.770;9.148;2023-02-11T07:47:08;3.40;88.40
62581;DHT22;48640;48.770;9.148;2023-02-11T07:49:36;3.40;88.00
62581;DHT22;48640;48.770;9.148;2023-02-11T07:52:03;3.60;87.40
62581;DHT22;48640;48.770;9.148;2023-02-11T07:54:29;3.60;86.80
62581;DHT22;48640;48.770;9.148;2023-02-11T07:56:56;3.60;86.50
62581;DHT22;48640;48.770;9.148;2023-02-11T07:59:24;3.60;86.60
62581;DHT22;48640;48.770;9.148;2023-02-11T08:01:51;3.60;87.40
62581;DHT22;48640;48.770;9.148;2023-02-11T08:04:18;3.80;86.90
62581;DHT22;48640;48.770;9.148;2023-02-11T08:06:47;3.90;86.50
62581;DHT22;48640;48.770;9.148;2023-02-11T08:09:15;3.70;86.30
62581;DHT22;48640;48.770;9.148;2023-02-11T08:11:42;3.70;86.30
62581;DHT22;48640;48.770;9.148;2023-02-11T08:14:09;3.80;87.00
62581;DHT22;48640;48.770;9.148;2023-02-11T08:16:37;4.00;86.70
62581;DHT22;48640;48.770;9.148;2023-02-11T08:19:06;4.30;86.30
62581;DHT22;48640;48.770;9.148;2023-02-11T08:21:33;4.50;85.50
62581;DHT22;48640;48.770;9.148;2023-02-11T08:24:02;4.50;84.20
62581;DHT22;48640;48.770;9.148;2023-02-11T08:26:30;4.50;84.40
62581;DHT22;48640;48.770;9.148;2023-02-11T08:29:00;4.50;85.00
62581;DHT22;48640;48.770;9.148;2023-02-11T08:31:29;4.30;86.00
62581;DHT22;48640;48.770;9.148;2023-02-11T08:33:57;4.20;86.00
62581;DHT22;48640;48.770;9.148;2023-02-11T08:36:25;4.20;85.60
62581;DHT22;48640;48.770;9.148;2023-02-11T08:38:53;4.20;85.80
62581;DHT22;48640;48.770;9.148;2023-02-11T08:41:22;4.20;86.00
62581;DHT22;48640;48.770;9.148;2023-02-11T08:43:48;4.20;85.80
62581;DHT22;48640;48.770;9.148;2023-02-11T08:46:17;4.10;85.80
62581;DHT22;48640;48.770;9.148;2023-02-11T08:48:45;4.30;86.00
62581;DHT22;48640;48.770;9.148;2023-02-11T08:51:15;4.40;85.80
62581;DHT22;48640;48.770;9.148;2023-02-11T08:53:42;4.40;85.30
62581;DHT22;48640;48.770;9.148;2023-02-11T08:56:09;4.60;85.60
62581;DHT22;48640;48.770;9.148;2023-02-11T08:58:38;4.60;85.40
62581;DHT22;48640;48.770;9.148;2023-02-11T09:01:08;4.70;85.00
62581;DHT22;48640;48.770;9.148;2023-02-11T09:03:35;4.70;85.70
62581;DHT22;48640;48.770;9.148;2023-02-11T09:06:04;4.90;85.40
62581;DHT22;48640;48.770;9.148;2023-02-11T09:08:33;4.90;85.20
62581;DHT22;48640;48.770;9.148;2023-02-11T09:11:00;5.00;85.20
62581;DHT22;48640;48.770;9.148;2023-02-11T09:13:26;5.10;84.80
62581;DHT22;48640;48.770;9.148;2023-02-11T09:15:55;5.20;84.20
62581;DHT22;48640;48.770;9.148;2023-02-11T09:18:21;5.00;84.30
62581;DHT22;48640;48.770;9.148;2023-02-11T09:20:48;5.10;84.80
62581;DHT22;48640;48.770;9.148;2023-02-11T09:23:15;5.00;84.80
62581;DHT22;48640;48.770;9.148;2023-02-11T09:25:42;4.90;85.40
62581;DHT22;48640;48.770;9.148;2023-02-11T09:28:09;4.80;85.60
62581;DHT22;48640;48.770;9.148;2023-02-11T09:30:37;4.80;86.00
62581;DHT22;48640;48.770;9.148;2023-02-11T09:33:05;4.90;86.10
62581;DHT22;48640;48.770;9.148;2023-02-11T09:35:32;4.90;86.50
62581;DHT22;48640;48.770;9.148;2023-02-11T09:37:59;5.00;86.90
62581;DHT22;48640;48.770;9.148;2023-02-11T09:40:26;5.20;86.70
62581;DHT22;48640;48.770;9.148;2023-02-11T09:42:56;5.30;86.00
62581;DHT22;48640;48.770;9.148;2023-02-11T09:45:29;5.40;85.60
62581;DHT22;48640;48.770;9.148;2023-02-11T09:48:01;5.40;85.00
62581;DHT22;48640;48.770;9.148;2023-02-11T09:50:32;5.50;84.80
62581;DHT22;48640;48.770;9.148;2023-02-11T09:53:02;5.60;83.90
62581;DHT22;48640;48.770;9.148;2023-02-11T09:55:30;5.70;83.70
62581;DHT22;48640;48.770;9.148;2023-02-11T09:58:03;5.80;83.10
62581;DHT22;48640;48.770;9.148;2023-02-11T10:00:36;6.00;82.80
62581;DHT22;48640;48.770;9.148;2023-02-11T10:06:14;6.50;80.50
62581;DHT22;48640;48.770;9.148;2023-02-11T10:08:51;6.60;80.20
62581;DHT22;48640;48.770;9.148;2023-02-11T10:11:29;6.70;79.50
62581;DHT22;48640;48.770;9.148;2023-02-11T10:14:04;6.60;79.10
62581;DHT22;48640;48.770;9.148;2023-02-11T10:16:42;6.40;79.40
62581;DHT22;48640;48.770;9.148;2023-02-11T10:19:25;6.40;80.80
62581;DHT22;48640;48.770;9.148;2023-02-11T10:22:05;6.40;80.30
62581;DHT22;48640;48.770;9.148;2023-02-11T10:24:36;6.40;80.40
62581;DHT22;48640;48.770;9.148;2023-02-11T10:27:07;6.30;81.20
62581;DHT22;48640;48.770;9.148;2023-02-11T10:29:43;6.40;81.10
62581;DHT22;48640;48.770;9.148;2023-02-11T10:32:21;6.40;80.50
62581;DHT22;48640;48.770;9.148;2023-02-11T10:34:52;6.50;80.50
62581;DHT22;48640;48.770;9.148;2023-02-11T10:37:22;6.60;80.30
62581;DHT22;48640;48.770;9.148;2023-02-11T10:39:49;6.70;81.20
62581;DHT22;48640;48.770;9.148;2023-02-11T10:42:16;6.90;79.80
62581;DHT22;48640;48.770;9.148;2023-02-11T10:44:53;7.10;79.80
62581;DHT22;48640;48.770;9.148;2023-02-11T10:47:22;7.20;78.50
62581;DHT22;48640;48.770;9.148;2023-02-11T10:49:50;7.20;77.40
62581;DHT22;48640;48.770;9.148;2023-02-11T10:52:20;7.10;77.30
62581;DHT22;48640;48.770;9.148;2023-02-11T10:55:05;7.00;77.40
62581;DHT22;48640;48.770;9.148;2023-02-11T10:57:42;7.30;78.50
62581;DHT22;48640;48.770;9.148;2023-02-11T11:00:30;7.90;75.50
62581;DHT22;48640;48.770;9.148;2023-02-11T11:02:59;8.10;73.80
62581;DHT22;48640;48.770;9.148;2023-02-11T11:05:30;8.10;72.70
62581;DHT22;48640;48.770;9.148;2023-02-11T11:07:59;7.80;73.20
62581;DHT22;48640;48.770;9.148;2023-02-11T11:10:33;7.40;74.20
62581;DHT22;48640;48.770;9.148;2023-02-11T11:13:01;7.30;75.30
62581;DHT22;48640;48.770;9.148;2023-02-11T11:15:30;7.20;76.10
62581;DHT22;48640;48.770;9.148;2023-02-11T11:18:11;7.30;76.30
62581;DHT22;48640;48.770;9.148;2023-02-11T11:20:43;7.20;76.00
62581;DHT22;48640;48.770;9.148;2023-02-11T11:23:20;7.20;76.70
62581;DHT22;48640;48.770;9.148;2023-02-11T11:26:02;7.10;76.80
62581;DHT22;48640;48.770;9.148;2023-02-11T11:28:32;7.10;77.10
62581;DHT22;48640;48.770;9.148;2023-02-11T11:31:03;7.10;77.60
62581;DHT22;48640;48.770;9.148;2023-02-11T11:33:33;7.10;77.60
62581;DHT22;48640;48.770;9.148;2023-02-11T11:36:02;7.10;77.40
62581;DHT22;48640;48.770;9.148;2023-02-11T11:38:31;7.00;77.60
62581;DHT22;48640;48.770;9.148;2023-02-11T11:41:24;7.00;78.00
62581;DHT22;48640;48.770;9.148;2023-02-11T11:44:00;7.00;78.20
62581;DHT22;48640;48.770;9.148;2023-02-11T11:46:31;7.00;78.20
62581;DHT22;48640;48.770;9.148;2023-02-11T11:49:06;7.10;78.30
62581;DHT22;48640;48.770;9.148;2023-02-11T11:51:34;7.20;78.20
62581;DHT22;48640;48.770;9.148;2023-02-11T11:54:06;7.20;78.00
62581;DHT22;48640;48.770;9.148;2023-02-11T11:56:39;7.30;77.90
62581;DHT22;48640;48.770;9.148;2023-02-11T11:59:11;7.50;77.40
62581;DHT22;48640;48.770;9.148;2023-02-11T12:01:46;7.70;77.30
62581;DHT22;48640;48.770;9.148;2023-02-11T12:04:34;8.00;76.90
62581;DHT22;48640;48.770;9.148;2023-02-11T12:07:14;8.20;75.80
62581;DHT22;48640;48.770;9.148;2023-02-11T12:09:52;8.50;74.50
62581;DHT22;48640;48.770;9.148;2023-02-11T12:12:38;8.20;73.90
62581;DHT22;48640;48.770;9.148;2023-02-11T12:15:20;8.20;74.70
62581;DHT22;48640;48.770;9.148;2023-02-11T12:18:00;8.20;74.90
62581;DHT22;48640;48.770;9.148;2023-02-11T12:20:36;8.20;74.90
62581;DHT22;48640;48.770;9.148;2023-02-11T12:23:17;8.10;75.80
62581;DHT22;48640;48.770;9.148;2023-02-11T12:25:52;8.50;76.50
62581;DHT22;48640;48.770;9.148;2023-02-11T12:28:32;8.80;74.10
62581;DHT22;48640;48.770;9.148;2023-02-11T12:31:12;9.30;72.80
62581;DHT22;48640;48.770;9.148;2023-02-11T12:33:58;9.70;71.20
62581;DHT22;48640;48.770;9.148;2023-02-11T12:36:44;10.30;69.20
62581;DHT22;48640;48.770;9.148;2023-02-11T12:39:27;10.00;67.50
62581;DHT22;48640;48.770;9.148;2023-02-11T12:42:15;9.80;69.80
62581;DHT22;48640;48.770;9.148;2023-02-11T12:45:12;9.50;70.60
62581;DHT22;48640;48.770;9.148;2023-02-11T12:47:51;9.40;72.10
62581;DHT22;48640;48.770;9.148;2023-02-11T12:50:26;9.60;73.20
62581;DHT22;48640;48.770;9.148;2023-02-11T12:53:06;9.90;73.00
62581;DHT22;48640;48.770;9.148;2023-02-11T12:55:37;9.60;72.30
62581;DHT22;48640;48.770;9.148;2023-02-11T12:58:11;9.50;73.10
62581;DHT22;48640;48.770;9.148;2023-02-11T13:00:46;9.50;73.30
62581;DHT22;48640;48.770;9.148;2023-02-11T13:03:18;9.30;73.80
62581;DHT22;48640;48.770;9.148;2023-02-11T13:05:48;9.30;74.60
62581;DHT22;48640;48.770;9.148;2023-02-11T13:08:21;9.60;73.90
62581;DHT22;48640;48.770;9.148;2023-02-11T13:10:53;9.80;72.60
62581;DHT22;48640;48.770;9.148;2023-02-11T13:13:24;10.10;70.90
62581;DHT22;48640;48.770;9.148;2023-02-11T13:15:58;10.40;69.70
62581;DHT22;48640;48.770;9.148;2023-02-11T13:18:44;10.70;68.50
62581;DHT22;48640;48.770;9.148;2023-02-11T13:21:28;10.80;68.40
62581;DHT22;48640;48.770;9.148;2023-02-11T13:24:01;10.90;68.80
62581;DHT22;48640;48.770;9.148;2023-02-11T13:26:36;11.20;68.40
62581;DHT22;48640;48.770;9.148;2023-02-11T13:29:14;11.40;67.20
62581;DHT22;48640;48.770;9.148;2023-02-11T13:31:51;11.20;67.30
62581;DHT22;48640;48.770;9.148;2023-02-11T13:34:23;11.00;67.80
62581;DHT22;48640;48.770;9.148;2023-02-11T13:36:54;10.60;68.50
62581;DHT22;48640;48.770;9.148;2023-02-11T13:39:21;10.30;70.30
62581;DHT22;48640;48.770;9.148;2023-02-11T13:41:49;9.70;73.70
62581;DHT22;48640;48.770;9.148;2023-02-11T13:44:25;9.40;75.70
62581;DHT22;48640;48.770;9.148;2023-02-11T13:47:01;9.10;78.00
62581;DHT22;48640;48.770;9.148;2023-02-11T13:49:33;8.90;79.80
62581;DHT22;48640;48.770;9.148;2023-02-11T13:52:03;9.00;81.60
62581;DHT22;48640;48.770;9.148;2023-02-11T13:54:35;9.20;80.70
62581;DHT22;48640;48.770;9.148;2023-02-11T13:57:34;9.40;81.40
62581;DHT22;48640;48.770;9.148;2023-02-11T14:03:28;9.70;80.10
62581;DHT22;48640;48.770;9.148;2023-02-11T14:06:31;9.90;79.60
62581;DHT22;48640;48.770;9.148;2023-02-11T14:09:36;10.20;77.30
62581;DHT22;48640;48.770;9.148;2023-02-11T14:12:24;10.30;76.40
62581;DHT22;48640;48.770;9.148;2023-02-11T14:17:43;10.50;76.10
62581;DHT22;48640;48.770;9.148;2023-02-11T14:20:39;10.30;74.70
62581;DHT22;48640;48.770;9.148;2023-02-11T14:23:21;10.10;74.90
62581;DHT22;48640;48.770;9.148;2023-02-11T14:25:58;10.00;75.10
62581;DHT22;48640;48.770;9.148;2023-02-11T14:28:28;9.90;76.60
62581;DHT22;48640;48.770;9.148;2023-02-11T14:31:04;9.80;76.90
62581;DHT22;48640;48.770;9.148;2023-02-11T14:33:59;9.70;77.20
62581;DHT22;48640;48.770;9.148;2023-02-11T14:36:57;9.50;77.30
62581;DHT22;48640;48.770;9.148;2023-02-11T14:39:42;9.40;78.10
62581;DHT22;48640;48.770;9.148;2023-02-11T14:42:16;9.30;78.40
62581;DHT22;48640;48.770;9.148;2023-02-11T14:44:45;9.30;78.40
62581;DHT22;48640;48.770;9.148;2023-02-11T14:47:17;9.20;78.80
62581;DHT22;48640;48.770;9.148;2023-02-11T14:49:45;9.10;79.20
62581;DHT22;48640;48.770;9.148;2023-02-11T14:52:22;8.90;79.70
62581;DHT22;48640;48.770;9.148;2023-02-11T14:54:50;8.80;80.20
62581;DHT22;48640;48.770;9.148;2023-02-11T14:57:19;8.80;80.50
62581;DHT22;48640;48.770;9.148;2023-02-11T14:59:54;8.80;80.70
62581;DHT22;48640;48.770;9.148;2023-02-11T15:02:24;8.90;80.60
62581;DHT22;48640;48.770;9.148;2023-02-11T15:04:53;8.80;80.10
62581;DHT22;48640;48.770;9.148;2023-02-11T15:07:22;8.80;79.50
62581;DHT22;48640;48.770;9.148;2023-02-11T15:09:51;8.80;79.60
62581;DHT22;48640;48.770;9.148;2023-02-11T15:12:22;8.80;79.60
62581;DHT22;48640;48.770;9.148;2023-02-11T15:14:51;8.70;78.10
62581;DHT22;48640;48.770;9.148;2023-02-11T15:17:21;8.60;77.90
62581;DHT22;48640;48.770;9.148;2023-02-11T15:19:51;8.50;78.80
62581;DHT22;48640;48.770;9.148;2023-02-11T15:22:21;8.40;80.90
62581;DHT22;48640;48.770;9.148;2023-02-11T15:24:59;8.30;81.90
62581;DHT22;48640;48.770;9.148;2023-02-11T15:27:26;8.20;82.40
62581;DHT22;48640;48.770;9.148;2023-02-11T15:29:53;8.10;83.00
62581;DHT22;48640;48.770;9.148;2023-02-11T15:32:22;8.00;83.40
62581;DHT22;48640;48.770;9.148;2023-02-11T15:34:51;8.00;83.80
62581;DHT22;48640;48.770;9.148;2023-02-11T15:37:20;8.00;83.90
62581;DHT22;48640;48.770;9.148;2023-02-11T15:39:47;8.00;83.90
62581;DHT22;48640;48.770;9.148;2023-02-11T15:42:17;7.90;84.40
62581;DHT22;48640;48.770;9.148;2023-02-11T15:44:45;7.80;85.10
62581;DHT22;48640;48.770;9.148;2023-02-11T15:47:15;7.70;85.70
62581;DHT22;48640;48.770;9.148;2023-02-11T15:49:44;7.70;86.00
62581;DHT22;48640;48.770;9.148;2023-02-11T15:52:12;7.60;86.30
62581;DHT22;48640;48.770;9.148;2023-02-11T15:54:39;7.60;86.40
62581;DHT22;48640;48.770;9.148;2023-02-11T15:57:11;7.60;86.20
62581;DHT22;48640;48.770;9.148;2023-02-11T15:59:45;7.70;86.40
62581;DHT22;48640;48.770;9.148;2023-02-11T16:02:17;7.70;86.40
62581;DHT22;48640;48.770;9.148;2023-02-11T16:04:52;7.70;86.50
62581;DHT22;48640;48.770;9.148;2023-02-11T16:07:40;7.70;86.30
62581;DHT22;48640;48.770;9.148;2023-02-11T16:10:21;7.80;86.10
62581;DHT22;48640;48.770;9.148;2023-02-11T16:15:45;7.80;86.50
62581;DHT22;48640;48.770;9.148;2023-02-11T16:18:30;7.80;86.40
62581;DHT22;48640;48.770;9.148;2023-02-11T16:20:58;7.80;86.10
62581;DHT22;48640;48.770;9.148;2023-02-11T16:23:27;7.90;86.10
62581;DHT22;48640;48.770;9.148;2023-02-11T16:25:59;7.80;86.10